sensor_id;sensor_type;location;lat;lon;timestamp;P1;durP1;ratioP1;P2;durP2;ratioP2
17806;SDS011;9027;48.938;9.182;2023-03-12T00:01:10;13.00;;;7.37;;
17806;SDS011;9027;48.938;9.182;2023-03-12T00:02:44;13.70;;;6.93;;
17806;SDS011;9027;48.938;9.182;2023-03-12T00:04:17;12.47;;;7.47;;
17806;SDS011;9027;48.938;9.182;2023-03-12T00:05:49;15.30;;;7.67;;
17806;SDS011;9027;48.938;9.182;2023-03-12T00:07:22;12.90;;;6.63;;
17806;SDS011;9027;48.938;9.182;2023-03-12T00:08:53;12.00;;;7.00;;
17806;SDS011;9027;48.938;9.182;2023-03-12T00:10:25;12.80;;;6.60;;
17806;SDS011;9027;48.938;9.182;2023-03-12T00:11:58;12.67;;;6.03;;
17806;SDS011;9027;48.938;9.182;2023-03-12T00:13:31;14.63;;;7.50;;
17806;SDS011;9027;48.938;9.182;2023-03-12T00:15:03;13.83;;;8.13;;
17806;SDS011;9027;48.938;9.182;2023-03-12T00:16:36;11.47;;;7.30;;
17806;SDS011;9027;48.938;9.182;2023-03-12T00:18:08;12.90;;;7.13;;
17806;SDS011;9027;48.938;9.182;2023-03-12T00:19:39;11.80;;;7.00;;
17806;SDS011;9027;48.938;9.182;2023-03-12T00:21:12;11.43;;;6.27;;
17806;SDS011;9027;48.938;9.182;2023-03-12T00:22:44;8.47;;;5.47;;
17806;SDS011;9027;48.938;9.182;2023-03-12T00:24:16;13.27;;;5.63;;
17806;SDS011;9027;48.938;9.182;2023-03-12T00:25:47;10.20;;;5.90;;
17806;SDS011;9027;48.938;9.182;2023-03-12T00:27:19;14.23;;;5.73;;
17806;SDS011;9027;48.938;9.182;2023-03-12T00:28:52;8.03;;;4.93;;
17806;SDS011;9027;48.938;9.182;2023-03-12T00:30:24;14.30;;;6.23;;
17806;SDS011;9027;48.938;9.182;2023-03-12T00:31:57;8.30;;;5.63;;
17806;SDS011;9027;48.938;9.182;2023-03-12T00:33:29;10.20;;;5.47;;
17806;SDS011;9027;48.938;9.182;2023-03-12T00:35:01;10.17;;;5.97;;
17806;SDS011;9027;48.938;9.182;2023-03-12T00:36:35;10.90;;;5.97;;
17806;SDS011;9027;48.938;9.182;2023-03-12T00:38:07;10.17;;;6.20;;
17806;SDS011;9027;48.938;9.182;2023-03-12T00:39:38;10.00;;;6.63;;
17806;SDS011;9027;48.938;9.182;2023-03-12T00:41:10;17.00;;;8.00;;
17806;SDS011;9027;48.938;9.182;2023-03-12T00:42:42;14.57;;;7.80;;
17806;SDS011;9027;48.938;9.182;2023-03-12T00:44:13;13.37;;;7.13;;
17806;SDS011;9027;48.938;9.182;2023-03-12T00:45:45;11.43;;;6.03;;
17806;SDS011;9027;48.938;9.182;2023-03-12T00:47:17;13.90;;;6.50;;
17806;SDS011;9027;48.938;9.182;2023-03-12T00:48:49;14.13;;;6.83;;
17806;SDS011;9027;48.938;9.182;2023-03-12T00:50:22;12.23;;;6.90;;
17806;SDS011;9027;48.938;9.182;2023-03-12T00:51:55;13.27;;;7.10;;
17806;SDS011;9027;48.938;9.182;2023-03-12T00:53:27;13.87;;;6.33;;
17806;SDS011;9027;48.938;9.182;2023-03-12T00:54:59;11.90;;;6.20;;
17806;SDS011;9027;48.938;9.182;2023-03-12T00:56:31;13.27;;;6.93;;
17806;SDS011;9027;48.938;9.182;2023-03-12T00:58:03;14.83;;;6.93;;
17806;SDS011;9027;48.938;9.182;2023-03-12T00:59:34;13.00;;;7.10;;
17806;SDS011;9027;48.938;9.182;2023-03-12T01:01:09;11.57;;;6.73;;
17806;SDS011;9027;48.938;9.182;2023-03-12T01:02:41;10.03;;;6.37;;
17806;SDS011;9027;48.938;9.182;2023-03-12T01:04:13;9.13;;;5.70;;
17806;SDS011;9027;48.938;9.182;2023-03-12T01:05:46;11.50;;;5.70;;
17806;SDS011;9027;48.938;9.182;2023-03-12T01:07:24;9.87;;;5.37;;
17806;SDS011;9027;48.938;9.182;2023-03-12T01:08:56;9.53;;;5.53;;
17806;SDS011;9027;48.938;9.182;2023-03-12T01:10:29;8.87;;;6.20;;
17806;SDS011;9027;48.938;9.182;2023-03-12T01:12:00;12.90;;;6.03;;
17806;SDS011;9027;48.938;9.182;2023-03-12T01:13:32;9.17;;;5.43;;
17806;SDS011;9027;48.938;9.182;2023-03-12T01:15:04;8.37;;;5.73;;
17806;SDS011;9027;48.938;9.182;2023-03-12T01:16:36;13.57;;;6.37;;
17806;SDS011;9027;48.938;9.182;2023-03-12T01:18:08;8.03;;;5.80;;
17806;SDS011;9027;48.938;9.182;2023-03-12T01:19:40;7.80;;;5.47;;
17806;SDS011;9027;48.938;9.182;2023-03-12T01:21:12;10.20;;;6.07;;
17806;SDS011;9027;48.938;9.182;2023-03-12T01:22:45;9.67;;;5.40;;
17806;SDS011;9027;48.938;9.182;2023-03-12T01:24:17;10.97;;;5.77;;
17806;SDS011;9027;48.938;9.182;2023-03-12T01:25:49;11.70;;;6.10;;
17806;SDS011;9027;48.938;9.182;2023-03-12T01:27:24;10.73;;;5.80;;
17806;SDS011;9027;48.938;9.182;2023-03-12T01:28:56;14.80;;;7.10;;
17806;SDS011;9027;48.938;9.182;2023-03-12T01:30:28;13.63;;;8.00;;
17806;SDS011;9027;48.938;9.182;2023-03-12T01:32:00;13.10;;;7.43;;
17806;SDS011;9027;48.938;9.182;2023-03-12T01:33:32;12.47;;;6.37;;
17806;SDS011;9027;48.938;9.182;2023-03-12T01:35:04;10.43;;;6.40;;
17806;SDS011;9027;48.938;9.182;2023-03-12T01:36:37;11.77;;;6.73;;
17806;SDS011;9027;48.938;9.182;2023-03-12T01:38:11;10.57;;;6.43;;
17806;SDS011;9027;48.938;9.182;2023-03-12T01:39:44;11.57;;;6.30;;
17806;SDS011;9027;48.938;9.182;2023-03-12T01:41:16;15.80;;;7.20;;
17806;SDS011;9027;48.938;9.182;2023-03-12T01:42:50;12.03;;;6.60;;
17806;SDS011;9027;48.938;9.182;2023-03-12T01:44:23;14.90;;;7.20;;
17806;SDS011;9027;48.938;9.182;2023-03-12T01:46:03;11.97;;;6.60;;
17806;SDS011;9027;48.938;9.182;2023-03-12T01:47:37;13.83;;;6.73;;
17806;SDS011;9027;48.938;9.182;2023-03-12T01:49:13;11.10;;;6.10;;
17806;SDS011;9027;48.938;9.182;2023-03-12T01:50:47;14.17;;;6.60;;
17806;SDS011;9027;48.938;9.182;2023-03-12T01:52:19;10.50;;;6.63;;
17806;SDS011;9027;48.938;9.182;2023-03-12T01:53:58;10.00;;;6.30;;
17806;SDS011;9027;48.938;9.182;2023-03-12T01:55:34;11.20;;;6.27;;
17806;SDS011;9027;48.938;9.182;2023-03-12T01:57:09;12.77;;;6.20;;
17806;SDS011;9027;48.938;9.182;2023-03-12T01:58:46;11.30;;;5.67;;
17806;SDS011;9027;48.938;9.182;2023-03-12T02:00:21;10.70;;;6.30;;
17806;SDS011;9027;48.938;9.182;2023-03-12T02:01:55;14.20;;;6.90;;
17806;SDS011;9027;48.938;9.182;2023-03-12T02:03:28;9.93;;;5.83;;
17806;SDS011;9027;48.938;9.182;2023-03-12T02:05:02;10.30;;;5.77;;
17806;SDS011;9027;48.938;9.182;2023-03-12T02:06:38;13.07;;;6.03;;
17806;SDS011;9027;48.938;9.182;2023-03-12T02:08:15;10.43;;;5.77;;
17806;SDS011;9027;48.938;9.182;2023-03-12T02:09:50;9.37;;;5.77;;
17806;SDS011;9027;48.938;9.182;2023-03-12T02:11:22;8.83;;;5.87;;
17806;SDS011;9027;48.938;9.182;2023-03-12T02:12:53;11.60;;;6.17;;
17806;SDS011;9027;48.938;9.182;2023-03-12T02:14:25;10.00;;;6.40;;
17806;SDS011;9027;48.938;9.182;2023-03-12T02:15:57;10.93;;;5.67;;
17806;SDS011;9027;48.938;9.182;2023-03-12T02:17:30;10.17;;;5.43;;
17806;SDS011;9027;48.938;9.182;2023-03-12T02:19:02;10.00;;;5.63;;
17806;SDS011;9027;48.938;9.182;2023-03-12T02:20:40;11.37;;;6.30;;
17806;SDS011;9027;48.938;9.182;2023-03-12T02:22:18;13.57;;;5.90;;
17806;SDS011;9027;48.938;9.182;2023-03-12T02:23:54;10.80;;;6.63;;
17806;SDS011;9027;48.938;9.182;2023-03-12T02:25:34;13.83;;;7.13;;
17806;SDS011;9027;48.938;9.182;2023-03-12T02:27:09;14.13;;;7.50;;
17806;SDS011;9027;48.938;9.182;2023-03-12T02:28:42;13.77;;;7.57;;
17806;SDS011;9027;48.938;9.182;2023-03-12T02:30:15;16.97;;;6.80;;
17806;SDS011;9027;48.938;9.182;2023-03-12T02:31:49;11.90;;;7.00;;
17806;SDS011;9027;48.938;9.182;2023-03-12T02:33:24;10.07;;;6.13;;
17806;SDS011;9027;48.938;9.182;2023-03-12T02:34:56;11.57;;;6.77;;
17806;SDS011;9027;48.938;9.182;2023-03-12T02:36:29;13.00;;;6.10;;
17806;SDS011;9027;48.938;9.182;2023-03-12T02:38:02;11.50;;;5.87;;
17806;SDS011;9027;48.938;9.182;2023-03-12T02:39:55;11.00;;;6.30;;
17806;SDS011;9027;48.938;9.182;2023-03-12T02:41:33;10.93;;;5.50;;
17806;SDS011;9027;48.938;9.182;2023-03-12T02:43:08;11.50;;;5.73;;
17806;SDS011;9027;48.938;9.182;2023-03-12T02:44:40;10.90;;;5.93;;
17806;SDS011;9027;48.938;9.182;2023-03-12T02:46:13;9.70;;;5.60;;
17806;SDS011;9027;48.938;9.182;2023-03-12T02:47:44;8.60;;;5.40;;
17806;SDS011;9027;48.938;9.182;2023-03-12T02:49:17;9.70;;;5.87;;
17806;SDS011;9027;48.938;9.182;2023-03-12T02:50:50;11.23;;;5.83;;
17806;SDS011;9027;48.938;9.182;2023-03-12T02:52:22;13.07;;;6.33;;
17806;SDS011;9027;48.938;9.182;2023-03-12T02:53:54;11.87;;;6.03;;
17806;SDS011;9027;48.938;9.182;2023-03-12T02:55:26;10.63;;;5.57;;
17806;SDS011;9027;48.938;9.182;2023-03-12T02:56:59;14.20;;;6.33;;
17806;SDS011;9027;48.938;9.182;2023-03-12T02:58:34;9.57;;;5.90;;
17806;SDS011;9027;48.938;9.182;2023-03-12T03:00:07;12.27;;;6.07;;
17806;SDS011;9027;48.938;9.182;2023-03-12T03:01:42;11.60;;;6.60;;
17806;SDS011;9027;48.938;9.182;2023-03-12T03:03:13;9.70;;;6.20;;
17806;SDS011;9027;48.938;9.182;2023-03-12T03:04:45;10.43;;;6.10;;
17806;SDS011;9027;48.938;9.182;2023-03-12T03:06:17;14.47;;;6.37;;
17806;SDS011;9027;48.938;9.182;2023-03-12T03:07:49;12.20;;;6.03;;
17806;SDS011;9027;48.938;9.182;2023-03-12T03:09:21;13.40;;;6.30;;
17806;SDS011;9027;48.938;9.182;2023-03-12T03:10:54;9.37;;;6.00;;
17806;SDS011;9027;48.938;9.182;2023-03-12T03:12:27;18.27;;;6.13;;
17806;SDS011;9027;48.938;9.182;2023-03-12T03:13:59;9.63;;;5.53;;
17806;SDS011;9027;48.938;9.182;2023-03-12T03:15:33;12.03;;;5.87;;
17806;SDS011;9027;48.938;9.182;2023-03-12T03:17:05;9.03;;;6.10;;
17806;SDS011;9027;48.938;9.182;2023-03-12T03:18:37;9.67;;;5.87;;
17806;SDS011;9027;48.938;9.182;2023-03-12T03:20:09;9.67;;;5.93;;
17806;SDS011;9027;48.938;9.182;2023-03-12T03:21:41;10.10;;;5.60;;
17806;SDS011;9027;48.938;9.182;2023-03-12T03:23:13;9.43;;;5.87;;
17806;SDS011;9027;48.938;9.182;2023-03-12T03:24:46;9.83;;;5.93;;
17806;SDS011;9027;48.938;9.182;2023-03-12T03:26:21;7.77;;;5.80;;
17806;SDS011;9027;48.938;9.182;2023-03-12T03:27:55;10.03;;;5.67;;
17806;SDS011;9027;48.938;9.182;2023-03-12T03:29:27;10.30;;;6.30;;
17806;SDS011;9027;48.938;9.182;2023-03-12T03:30:59;9.43;;;5.07;;
17806;SDS011;9027;48.938;9.182;2023-03-12T03:32:34;7.90;;;5.30;;
17806;SDS011;9027;48.938;9.182;2023-03-12T03:34:05;9.40;;;5.50;;
17806;SDS011;9027;48.938;9.182;2023-03-12T03:35:37;9.47;;;5.63;;
17806;SDS011;9027;48.938;9.182;2023-03-12T03:37:08;9.60;;;5.23;;
17806;SDS011;9027;48.938;9.182;2023-03-12T03:38:40;9.13;;;5.07;;
17806;SDS011;9027;48.938;9.182;2023-03-12T03:40:18;10.03;;;5.50;;
17806;SDS011;9027;48.938;9.182;2023-03-12T03:41:50;10.33;;;5.10;;
17806;SDS011;9027;48.938;9.182;2023-03-12T03:43:26;10.57;;;4.57;;
17806;SDS011;9027;48.938;9.182;2023-03-12T03:44:58;9.30;;;4.93;;
17806;SDS011;9027;48.938;9.182;2023-03-12T03:46:30;8.23;;;4.80;;
17806;SDS011;9027;48.938;9.182;2023-03-12T03:48:06;9.13;;;5.00;;
17806;SDS011;9027;48.938;9.182;2023-03-12T03:49:38;9.20;;;5.20;;
17806;SDS011;9027;48.938;9.182;2023-03-12T03:51:10;11.27;;;5.53;;
17806;SDS011;9027;48.938;9.182;2023-03-12T03:52:46;8.07;;;5.50;;
17806;SDS011;9027;48.938;9.182;2023-03-12T03:54:18;9.23;;;6.10;;
17806;SDS011;9027;48.938;9.182;2023-03-12T03:55:49;9.83;;;5.60;;
17806;SDS011;9027;48.938;9.182;2023-03-12T03:57:21;12.10;;;6.50;;
17806;SDS011;9027;48.938;9.182;2023-03-12T03:58:55;8.93;;;5.83;;
17806;SDS011;9027;48.938;9.182;2023-03-12T04:00:27;6.67;;;5.13;;
17806;SDS011;9027;48.938;9.182;2023-03-12T04:01:59;9.10;;;5.37;;
17806;SDS011;9027;48.938;9.182;2023-03-12T04:03:32;6.07;;;4.47;;
17806;SDS011;9027;48.938;9.182;2023-03-12T04:05:06;7.57;;;4.43;;
17806;SDS011;9027;48.938;9.182;2023-03-12T04:06:39;11.33;;;4.93;;
17806;SDS011;9027;48.938;9.182;2023-03-12T04:08:11;8.00;;;4.73;;
17806;SDS011;9027;48.938;9.182;2023-03-12T04:09:43;6.13;;;4.63;;
17806;SDS011;9027;48.938;9.182;2023-03-12T04:11:16;10.53;;;5.07;;
17806;SDS011;9027;48.938;9.182;2023-03-12T04:12:50;8.27;;;4.70;;
17806;SDS011;9027;48.938;9.182;2023-03-12T04:14:24;8.43;;;4.70;;
17806;SDS011;9027;48.938;9.182;2023-03-12T04:15:55;6.30;;;4.57;;
17806;SDS011;9027;48.938;9.182;2023-03-12T04:17:27;10.17;;;4.93;;
17806;SDS011;9027;48.938;9.182;2023-03-12T04:19:00;7.40;;;4.17;;
17806;SDS011;9027;48.938;9.182;2023-03-12T04:20:32;7.63;;;4.80;;
17806;SDS011;9027;48.938;9.182;2023-03-12T04:22:03;8.83;;;4.77;;
17806;SDS011;9027;48.938;9.182;2023-03-12T04:23:36;9.03;;;4.70;;
17806;SDS011;9027;48.938;9.182;2023-03-12T04:25:08;8.13;;;4.73;;
17806;SDS011;9027;48.938;9.182;2023-03-12T04:26:41;8.37;;;5.27;;
17806;SDS011;9027;48.938;9.182;2023-03-12T04:28:13;11.37;;;5.13;;
17806;SDS011;9027;48.938;9.182;2023-03-12T04:29:46;11.17;;;4.80;;
17806;SDS011;9027;48.938;9.182;2023-03-12T04:31:18;7.03;;;4.37;;
17806;SDS011;9027;48.938;9.182;2023-03-12T04:32:54;8.00;;;4.70;;
17806;SDS011;9027;48.938;9.182;2023-03-12T04:34:26;7.60;;;4.73;;
17806;SDS011;9027;48.938;9.182;2023-03-12T04:35:59;8.50;;;4.80;;
17806;SDS011;9027;48.938;9.182;2023-03-12T04:37:31;7.00;;;4.90;;
17806;SDS011;9027;48.938;9.182;2023-03-12T04:39:05;9.40;;;4.93;;
17806;SDS011;9027;48.938;9.182;2023-03-12T04:40:37;7.97;;;4.73;;
17806;SDS011;9027;48.938;9.182;2023-03-12T04:42:09;6.90;;;4.57;;
17806;SDS011;9027;48.938;9.182;2023-03-12T04:43:43;8.23;;;4.50;;
17806;SDS011;9027;48.938;9.182;2023-03-12T04:45:17;9.13;;;4.60;;
17806;SDS011;9027;48.938;9.182;2023-03-12T04:46:50;6.00;;;4.30;;
17806;SDS011;9027;48.938;9.182;2023-03-12T04:48:25;10.03;;;4.90;;
17806;SDS011;9027;48.938;9.182;2023-03-12T04:49:58;8.67;;;4.53;;
17806;SDS011;9027;48.938;9.182;2023-03-12T04:51:30;6.33;;;4.47;;
17806;SDS011;9027;48.938;9.182;2023-03-12T04:53:04;5.93;;;4.10;;
17806;SDS011;9027;48.938;9.182;2023-03-12T04:54:36;7.60;;;4.63;;
17806;SDS011;9027;48.938;9.182;2023-03-12T04:56:08;6.73;;;4.47;;
17806;SDS011;9027;48.938;9.182;2023-03-12T04:57:41;7.50;;;4.60;;
17806;SDS011;9027;48.938;9.182;2023-03-12T04:59:13;8.13;;;4.90;;
17806;SDS011;9027;48.938;9.182;2023-03-12T05:00:48;8.13;;;4.70;;
17806;SDS011;9027;48.938;9.182;2023-03-12T05:02:20;8.80;;;4.67;;
17806;SDS011;9027;48.938;9.182;2023-03-12T05:03:53;9.27;;;5.03;;
17806;SDS011;9027;48.938;9.182;2023-03-12T05:05:25;9.57;;;5.17;;
17806;SDS011;9027;48.938;9.182;2023-03-12T05:06:57;6.37;;;4.83;;
17806;SDS011;9027;48.938;9.182;2023-03-12T05:08:29;8.23;;;4.43;;
17806;SDS011;9027;48.938;9.182;2023-03-12T05:10:01;6.47;;;4.60;;
17806;SDS011;9027;48.938;9.182;2023-03-12T05:11:33;8.93;;;4.90;;
17806;SDS011;9027;48.938;9.182;2023-03-12T05:13:11;10.37;;;4.97;;
17806;SDS011;9027;48.938;9.182;2023-03-12T05:14:43;8.10;;;4.90;;
17806;SDS011;9027;48.938;9.182;2023-03-12T05:16:17;10.30;;;5.03;;
17806;SDS011;9027;48.938;9.182;2023-03-12T05:17:49;7.43;;;4.57;;
17806;SDS011;9027;48.938;9.182;2023-03-12T05:19:21;7.20;;;4.47;;
17806;SDS011;9027;48.938;9.182;2023-03-12T05:20:56;8.43;;;4.37;;
17806;SDS011;9027;48.938;9.182;2023-03-12T05:22:30;10.27;;;5.10;;
17806;SDS011;9027;48.938;9.182;2023-03-12T05:24:03;9.30;;;4.83;;
17806;SDS011;9027;48.938;9.182;2023-03-12T05:25:37;8.60;;;4.80;;
17806;SDS011;9027;48.938;9.182;2023-03-12T05:27:10;10.90;;;4.37;;
17806;SDS011;9027;48.938;9.182;2023-03-12T05:28:42;9.27;;;4.33;;
17806;SDS011;9027;48.938;9.182;2023-03-12T05:30:15;8.37;;;5.03;;
17806;SDS011;9027;48.938;9.182;2023-03-12T05:31:48;10.77;;;4.63;;
17806;SDS011;9027;48.938;9.182;2023-03-12T05:33:20;7.83;;;4.50;;
17806;SDS011;9027;48.938;9.182;2023-03-12T05:34:52;7.57;;;4.40;;
17806;SDS011;9027;48.938;9.182;2023-03-12T05:36:24;6.70;;;4.27;;
17806;SDS011;9027;48.938;9.182;2023-03-12T05:37:55;5.37;;;4.60;;
17806;SDS011;9027;48.938;9.182;2023-03-12T05:39:27;6.77;;;4.70;;
17806;SDS011;9027;48.938;9.182;2023-03-12T05:41:03;8.70;;;4.40;;
17806;SDS011;9027;48.938;9.182;2023-03-12T05:42:37;6.73;;;4.33;;
17806;SDS011;9027;48.938;9.182;2023-03-12T05:44:11;6.03;;;4.37;;
17806;SDS011;9027;48.938;9.182;2023-03-12T05:45:46;7.50;;;4.73;;
17806;SDS011;9027;48.938;9.182;2023-03-12T05:47:20;9.43;;;4.47;;
17806;SDS011;9027;48.938;9.182;2023-03-12T05:48:53;7.90;;;4.20;;
17806;SDS011;9027;48.938;9.182;2023-03-12T05:50:25;7.27;;;4.30;;
17806;SDS011;9027;48.938;9.182;2023-03-12T05:51:57;9.43;;;4.43;;
17806;SDS011;9027;48.938;9.182;2023-03-12T05:53:29;6.10;;;4.13;;
17806;SDS011;9027;48.938;9.182;2023-03-12T05:55:01;8.17;;;4.83;;
17806;SDS011;9027;48.938;9.182;2023-03-12T05:56:34;6.60;;;4.27;;
17806;SDS011;9027;48.938;9.182;2023-03-12T05:58:07;6.40;;;4.60;;
17806;SDS011;9027;48.938;9.182;2023-03-12T05:59:40;7.40;;;4.30;;
17806;SDS011;9027;48.938;9.182;2023-03-12T06:01:13;10.93;;;4.37;;
17806;SDS011;9027;48.938;9.182;2023-03-12T06:02:49;8.10;;;4.00;;
17806;SDS011;9027;48.938;9.182;2023-03-12T06:04:21;7.47;;;4.00;;
17806;SDS011;9027;48.938;9.182;2023-03-12T06:05:54;8.40;;;4.40;;
17806;SDS011;9027;48.938;9.182;2023-03-12T06:07:27;7.70;;;4.77;;
17806;SDS011;9027;48.938;9.182;2023-03-12T06:08:59;8.37;;;4.73;;
17806;SDS011;9027;48.938;9.182;2023-03-12T06:10:31;4.70;;;4.20;;
17806;SDS011;9027;48.938;9.182;2023-03-12T06:12:02;6.50;;;4.50;;
17806;SDS011;9027;48.938;9.182;2023-03-12T06:13:35;10.97;;;4.37;;
17806;SDS011;9027;48.938;9.182;2023-03-12T06:15:07;10.33;;;4.70;;
17806;SDS011;9027;48.938;9.182;2023-03-12T06:16:40;7.07;;;4.87;;
17806;SDS011;9027;48.938;9.182;2023-03-12T06:18:13;9.83;;;4.67;;
17806;SDS011;9027;48.938;9.182;2023-03-12T06:19:49;7.03;;;4.53;;
17806;SDS011;9027;48.938;9.182;2023-03-12T06:21:23;7.77;;;4.80;;
17806;SDS011;9027;48.938;9.182;2023-03-12T06:22:57;8.20;;;4.83;;
17806;SDS011;9027;48.938;9.182;2023-03-12T06:24:29;6.43;;;4.67;;
17806;SDS011;9027;48.938;9.182;2023-03-12T06:26:05;7.03;;;4.33;;
17806;SDS011;9027;48.938;9.182;2023-03-12T06:27:38;9.53;;;4.07;;
17806;SDS011;9027;48.938;9.182;2023-03-12T06:29:10;8.33;;;4.33;;
17806;SDS011;9027;48.938;9.182;2023-03-12T06:30:42;9.47;;;4.97;;
17806;SDS011;9027;48.938;9.182;2023-03-12T06:32:14;5.73;;;3.80;;
17806;SDS011;9027;48.938;9.182;2023-03-12T06:33:47;7.73;;;4.33;;
17806;SDS011;9027;48.938;9.182;2023-03-12T06:35:19;7.13;;;3.90;;
17806;SDS011;9027;48.938;9.182;2023-03-12T06:36:51;9.37;;;4.27;;
17806;SDS011;9027;48.938;9.182;2023-03-12T06:38:23;8.47;;;4.50;;
17806;SDS011;9027;48.938;9.182;2023-03-12T06:39:56;6.87;;;3.83;;
17806;SDS011;9027;48.938;9.182;2023-03-12T06:41:28;7.30;;;4.33;;
17806;SDS011;9027;48.938;9.182;2023-03-12T06:42:59;6.53;;;4.20;;
17806;SDS011;9027;48.938;9.182;2023-03-12T06:44:31;7.70;;;3.83;;
17806;SDS011;9027;48.938;9.182;2023-03-12T06:46:04;5.80;;;4.40;;
17806;SDS011;9027;48.938;9.182;2023-03-12T06:47:37;9.87;;;4.53;;
17806;SDS011;9027;48.938;9.182;2023-03-12T06:49:10;10.57;;;4.40;;
17806;SDS011;9027;48.938;9.182;2023-03-12T06:50:43;8.73;;;4.47;;
17806;SDS011;9027;48.938;9.182;2023-03-12T06:52:14;5.83;;;3.80;;
17806;SDS011;9027;48.938;9.182;2023-03-12T06:53:46;6.27;;;4.20;;
17806;SDS011;9027;48.938;9.182;2023-03-12T06:55:18;5.87;;;3.77;;
17806;SDS011;9027;48.938;9.182;2023-03-12T06:56:50;6.30;;;4.20;;
17806;SDS011;9027;48.938;9.182;2023-03-12T06:58:22;10.03;;;4.43;;
17806;SDS011;9027;48.938;9.182;2023-03-12T06:59:53;6.57;;;4.20;;
17806;SDS011;9027;48.938;9.182;2023-03-12T07:01:25;7.27;;;4.30;;
17806;SDS011;9027;48.938;9.182;2023-03-12T07:02:57;6.80;;;4.47;;
17806;SDS011;9027;48.938;9.182;2023-03-12T07:04:30;7.17;;;4.00;;
17806;SDS011;9027;48.938;9.182;2023-03-12T07:06:02;8.07;;;4.60;;
17806;SDS011;9027;48.938;9.182;2023-03-12T07:07:35;7.03;;;4.30;;
17806;SDS011;9027;48.938;9.182;2023-03-12T07:09:08;8.27;;;4.43;;
17806;SDS011;9027;48.938;9.182;2023-03-12T07:10:40;7.60;;;4.77;;
17806;SDS011;9027;48.938;9.182;2023-03-12T07:12:12;8.47;;;4.03;;
17806;SDS011;9027;48.938;9.182;2023-03-12T07:13:44;6.83;;;4.40;;
17806;SDS011;9027;48.938;9.182;2023-03-12T07:15:16;6.10;;;4.37;;
17806;SDS011;9027;48.938;9.182;2023-03-12T07:16:48;6.03;;;4.10;;
17806;SDS011;9027;48.938;9.182;2023-03-12T07:18:20;8.17;;;4.30;;
17806;SDS011;9027;48.938;9.182;2023-03-12T07:19:53;10.67;;;5.20;;
17806;SDS011;9027;48.938;9.182;2023-03-12T07:21:25;7.80;;;4.40;;
17806;SDS011;9027;48.938;9.182;2023-03-12T07:22:57;7.73;;;4.80;;
17806;SDS011;9027;48.938;9.182;2023-03-12T07:24:30;9.87;;;4.90;;
17806;SDS011;9027;48.938;9.182;2023-03-12T07:26:03;7.40;;;4.20;;
17806;SDS011;9027;48.938;9.182;2023-03-12T07:27:36;8.03;;;4.80;;
17806;SDS011;9027;48.938;9.182;2023-03-12T07:29:08;8.47;;;4.83;;
17806;SDS011;9027;48.938;9.182;2023-03-12T07:30:40;6.67;;;4.47;;
17806;SDS011;9027;48.938;9.182;2023-03-12T07:32:12;6.83;;;4.10;;
17806;SDS011;9027;48.938;9.182;2023-03-12T07:33:44;5.67;;;4.33;;
17806;SDS011;9027;48.938;9.182;2023-03-12T07:35:17;7.17;;;4.23;;
17806;SDS011;9027;48.938;9.182;2023-03-12T07:36:49;7.40;;;4.43;;
17806;SDS011;9027;48.938;9.182;2023-03-12T07:38:21;6.33;;;4.47;;
17806;SDS011;9027;48.938;9.182;2023-03-12T07:39:53;6.30;;;4.90;;
17806;SDS011;9027;48.938;9.182;2023-03-12T07:41:25;7.87;;;5.63;;
17806;SDS011;9027;48.938;9.182;2023-03-12T07:42:57;13.83;;;5.67;;
17806;SDS011;9027;48.938;9.182;2023-03-12T07:44:29;10.93;;;6.00;;
17806;SDS011;9027;48.938;9.182;2023-03-12T07:46:01;9.63;;;6.57;;
17806;SDS011;9027;48.938;9.182;2023-03-12T07:47:33;7.90;;;6.00;;
17806;SDS011;9027;48.938;9.182;2023-03-12T07:49:05;7.70;;;5.17;;
17806;SDS011;9027;48.938;9.182;2023-03-12T07:50:38;8.60;;;5.50;;
17806;SDS011;9027;48.938;9.182;2023-03-12T07:52:10;5.30;;;4.43;;
17806;SDS011;9027;48.938;9.182;2023-03-12T07:53:42;6.67;;;5.17;;
17806;SDS011;9027;48.938;9.182;2023-03-12T07:55:14;7.07;;;4.37;;
17806;SDS011;9027;48.938;9.182;2023-03-12T07:56:46;6.73;;;4.40;;
17806;SDS011;9027;48.938;9.182;2023-03-12T07:58:18;6.47;;;5.10;;
17806;SDS011;9027;48.938;9.182;2023-03-12T07:59:50;8.07;;;6.10;;
17806;SDS011;9027;48.938;9.182;2023-03-12T08:01:22;10.10;;;5.80;;
17806;SDS011;9027;48.938;9.182;2023-03-12T08:02:54;8.27;;;5.93;;
17806;SDS011;9027;48.938;9.182;2023-03-12T08:04:26;8.60;;;5.77;;
17806;SDS011;9027;48.938;9.182;2023-03-12T08:06:00;7.87;;;5.53;;
17806;SDS011;9027;48.938;9.182;2023-03-12T08:07:33;6.47;;;4.43;;
17806;SDS011;9027;48.938;9.182;2023-03-12T08:09:05;9.03;;;4.47;;
17806;SDS011;9027;48.938;9.182;2023-03-12T08:10:37;8.67;;;4.60;;
17806;SDS011;9027;48.938;9.182;2023-03-12T08:12:09;8.60;;;4.60;;
17806;SDS011;9027;48.938;9.182;2023-03-12T08:13:41;8.20;;;5.50;;
17806;SDS011;9027;48.938;9.182;2023-03-12T08:15:13;7.90;;;5.40;;
17806;SDS011;9027;48.938;9.182;2023-03-12T08:16:45;6.20;;;5.00;;
17806;SDS011;9027;48.938;9.182;2023-03-12T08:18:17;8.03;;;4.57;;
17806;SDS011;9027;48.938;9.182;2023-03-12T08:19:49;9.70;;;4.40;;
17806;SDS011;9027;48.938;9.182;2023-03-12T08:21:22;10.10;;;4.73;;
17806;SDS011;9027;48.938;9.182;2023-03-12T08:22:54;6.40;;;4.53;;
17806;SDS011;9027;48.938;9.182;2023-03-12T08:24:26;8.73;;;5.20;;
17806;SDS011;9027;48.938;9.182;2023-03-12T08:25:58;7.30;;;5.27;;
17806;SDS011;9027;48.938;9.182;2023-03-12T08:27:30;10.10;;;5.17;;
17806;SDS011;9027;48.938;9.182;2023-03-12T08:29:03;8.40;;;5.60;;
17806;SDS011;9027;48.938;9.182;2023-03-12T08:30:34;9.90;;;5.97;;
17806;SDS011;9027;48.938;9.182;2023-03-12T08:32:07;7.83;;;5.37;;
17806;SDS011;9027;48.938;9.182;2023-03-12T08:33:39;7.60;;;5.67;;
17806;SDS011;9027;48.938;9.182;2023-03-12T08:35:12;7.33;;;4.83;;
17806;SDS011;9027;48.938;9.182;2023-03-12T08:36:46;7.13;;;5.30;;
17806;SDS011;9027;48.938;9.182;2023-03-12T08:38:18;6.53;;;4.90;;
17806;SDS011;9027;48.938;9.182;2023-03-12T08:39:50;7.63;;;4.80;;
17806;SDS011;9027;48.938;9.182;2023-03-12T08:41:22;7.67;;;5.33;;
17806;SDS011;9027;48.938;9.182;2023-03-12T08:42:54;6.90;;;5.00;;
17806;SDS011;9027;48.938;9.182;2023-03-12T08:44:26;9.97;;;5.53;;
17806;SDS011;9027;48.938;9.182;2023-03-12T08:45:59;7.70;;;4.73;;
17806;SDS011;9027;48.938;9.182;2023-03-12T08:47:32;9.17;;;5.57;;
17806;SDS011;9027;48.938;9.182;2023-03-12T08:49:04;7.83;;;5.10;;
17806;SDS011;9027;48.938;9.182;2023-03-12T08:50:36;11.67;;;6.77;;
17806;SDS011;9027;48.938;9.182;2023-03-12T08:52:09;9.80;;;5.77;;
17806;SDS011;9027;48.938;9.182;2023-03-12T08:53:41;7.47;;;5.30;;
17806;SDS011;9027;48.938;9.182;2023-03-12T08:55:14;7.27;;;5.30;;
17806;SDS011;9027;48.938;9.182;2023-03-12T08:56:48;8.77;;;5.73;;
17806;SDS011;9027;48.938;9.182;2023-03-12T08:58:21;6.90;;;5.43;;
17806;SDS011;9027;48.938;9.182;2023-03-12T08:59:53;9.70;;;5.87;;
17806;SDS011;9027;48.938;9.182;2023-03-12T09:01:25;6.43;;;4.97;;
17806;SDS011;9027;48.938;9.182;2023-03-12T09:02:57;13.77;;;7.13;;
17806;SDS011;9027;48.938;9.182;2023-03-12T09:04:29;9.87;;;6.33;;
17806;SDS011;9027;48.938;9.182;2023-03-12T09:06:02;9.97;;;5.87;;
17806;SDS011;9027;48.938;9.182;2023-03-12T09:07:37;8.30;;;5.70;;
17806;SDS011;9027;48.938;9.182;2023-03-12T09:09:09;11.03;;;6.67;;
17806;SDS011;9027;48.938;9.182;2023-03-12T09:10:46;7.97;;;5.93;;
17806;SDS011;9027;48.938;9.182;2023-03-12T09:12:18;8.60;;;6.70;;
17806;SDS011;9027;48.938;9.182;2023-03-12T09:13:50;8.03;;;6.10;;
17806;SDS011;9027;48.938;9.182;2023-03-12T09:15:22;8.07;;;6.40;;
17806;SDS011;9027;48.938;9.182;2023-03-12T09:16:54;11.03;;;6.13;;
17806;SDS011;9027;48.938;9.182;2023-03-12T09:18:26;9.87;;;6.00;;
17806;SDS011;9027;48.938;9.182;2023-03-12T09:19:59;8.77;;;7.07;;
17806;SDS011;9027;48.938;9.182;2023-03-12T09:21:31;12.27;;;6.80;;
17806;SDS011;9027;48.938;9.182;2023-03-12T09:23:04;9.43;;;6.57;;
17806;SDS011;9027;48.938;9.182;2023-03-12T09:24:36;10.20;;;7.37;;